createdAt,value
2023-02-27T00:01:50.991Z,3.89
2023-02-27T00:04:17.657Z,4.18
2023-02-27T00:06:44.343Z,3.80
2023-02-27T00:09:10.918Z,3.77
2023-02-27T00:11:38.533Z,3.88
2023-02-27T00:14:05.416Z,3.69
2023-02-27T00:16:32.051Z,3.54
2023-02-27T00:19:01.236Z,3.84
2023-02-27T00:21:28.229Z,3.80
2023-02-27T00:23:55.473Z,3.90
2023-02-27T00:26:22.308Z,3.47
2023-02-27T00:28:49.338Z,3.89
2023-02-27T00:31:15.941Z,3.77
2023-02-27T00:33:42.501Z,3.91
2023-02-27T00:36:09.081Z,3.73
2023-02-27T00:38:36.365Z,3.61
2023-02-27T00:41:03.141Z,3.67
2023-02-27T00:43:29.840Z,3.77
2023-02-27T00:45:56.556Z,3.77
2023-02-27T00:48:23.204Z,3.59
2023-02-27T00:50:50.745Z,3.70
2023-02-27T00:53:17.748Z,3.76
2023-02-27T00:55:44.303Z,3.40
2023-02-27T00:58:10.884Z,3.63
2023-02-27T01:00:38.078Z,3.88
2023-02-27T01:03:04.888Z,3.72
2023-02-27T01:05:31.853Z,3.66
2023-02-27T01:07:58.523Z,3.51
2023-02-27T01:10:25.388Z,3.48
2023-02-27T01:12:52.123Z,3.74
2023-02-27T01:15:18.818Z,3.45
2023-02-27T01:17:45.606Z,3.53
2023-02-27T01:20:13.182Z,3.45
2023-02-27T01:22:39.832Z,3.30
2023-02-27T01:25:07.392Z,3.67
2023-02-27T01:27:34.050Z,3.49
2023-02-27T01:30:00.649Z,3.40
2023-02-27T01:32:27.400Z,3.53
2023-02-27T01:34:54.054Z,3.46
2023-02-27T01:37:20.628Z,3.47
2023-02-27T01:39:47.267Z,3.16
2023-02-27T01:42:34.099Z,3.45
2023-02-27T01:45:12.829Z,3.00
2023-02-27T01:47:43.153Z,3.28
2023-02-27T01:50:11.212Z,3.36
2023-02-27T01:52:41.216Z,3.25
2023-02-27T01:55:12.643Z,3.22
2023-02-27T01:57:42.923Z,3.36
2023-02-27T02:00:10.327Z,3.30
2023-02-27T02:02:42.297Z,3.25
2023-02-27T02:05:10.376Z,3.30
2023-02-27T02:07:40.576Z,3.37
2023-02-27T02:10:08.186Z,3.08
2023-02-27T02:12:39.161Z,3.22
2023-02-27T02:15:06.920Z,3.34
2023-02-27T02:17:40.109Z,3.23
2023-02-27T02:20:12.904Z,3.25
2023-02-27T02:22:48.518Z,3.38
2023-02-27T02:25:52.209Z,3.23
2023-02-27T02:29:21.605Z,2.93
2023-02-27T02:32:09.760Z,2.90
2023-02-27T02:34:55.114Z,3.18
2023-02-27T02:37:39.946Z,3.15
2023-02-27T02:40:47.050Z,3.11
2023-02-27T02:43:29.444Z,2.98
2023-02-27T02:46:10.367Z,3.01
2023-02-27T02:48:52.320Z,3.05
2023-02-27T02:51:31.586Z,2.90
2023-02-27T02:54:07.284Z,3.02
2023-02-27T02:57:02.877Z,3.04
2023-02-27T02:59:38.830Z,2.96
2023-02-27T03:02:22.020Z,2.80
2023-02-27T03:05:05.248Z,2.91
2023-02-27T03:07:38.825Z,2.81
2023-02-27T03:10:15.477Z,2.92
2023-02-27T03:12:48.528Z,2.90
2023-02-27T03:15:44.070Z,2.74
2023-02-27T03:18:20.439Z,2.73
2023-02-27T03:21:03.781Z,2.68
2023-02-27T03:23:44.366Z,2.86
2023-02-27T03:26:18.915Z,2.79
2023-02-27T03:29:10.622Z,2.65
2023-02-27T03:31:54.486Z,2.64
2023-02-27T03:34:35.348Z,2.57
2023-02-27T03:37:22.862Z,2.63
2023-02-27T03:39:54.028Z,2.42
2023-02-27T03:42:38.285Z,2.46
2023-02-27T03:45:37.379Z,2.51
2023-02-27T03:48:06.837Z,2.46
2023-02-27T03:50:35.474Z,2.49
2023-02-27T03:53:17.522Z,2.20
2023-02-27T03:55:47.681Z,2.48
2023-02-27T03:58:14.675Z,2.42
2023-02-27T04:00:41.797Z,2.24
2023-02-27T04:03:08.837Z,2.36
2023-02-27T04:05:35.671Z,2.29
2023-02-27T04:08:14.016Z,2.27
2023-02-27T04:10:52.665Z,2.38
2023-02-27T04:13:53.259Z,2.12
2023-02-27T04:16:31.868Z,2.06
2023-02-27T04:19:35.364Z,2.21
2023-02-27T04:22:16.609Z,2.19
2023-02-27T04:24:45.907Z,2.15
2023-02-27T04:27:32.615Z,2.13
2023-02-27T04:30:08.623Z,2.03
2023-02-27T04:32:51.080Z,1.99
2023-02-27T04:35:26.665Z,2.12
2023-02-27T04:38:26.187Z,2.09
2023-02-27T04:41:12.979Z,2.02
2023-02-27T04:43:42.916Z,1.97
2023-02-27T04:46:15.701Z,2.05
2023-02-27T04:49:02.171Z,2.06
2023-02-27T04:51:46.694Z,1.95
2023-02-27T04:54:25.864Z,2.05
2023-02-27T04:56:58.201Z,2.12
2023-02-27T04:59:30.861Z,2.11
2023-02-27T05:02:08.267Z,2.06
2023-02-27T05:04:40.212Z,2.10
2023-02-27T05:07:10.504Z,2.03
2023-02-27T05:09:46.242Z,1.92
2023-02-27T05:12:17.391Z,2.04
2023-02-27T05:14:52.000Z,2.12
2023-02-27T05:17:26.095Z,1.87
2023-02-27T05:19:52.994Z,2.02
2023-02-27T05:22:36.112Z,1.98
2023-02-27T05:25:20.199Z,1.95
2023-02-27T05:27:55.022Z,1.82
2023-02-27T05:30:36.068Z,1.87
2023-02-27T05:33:18.145Z,1.79
2023-02-27T05:35:52.280Z,1.70
2023-02-27T05:38:28.045Z,1.93
2023-02-27T05:41:19.371Z,2.04
2023-02-27T05:44:15.711Z,1.87
2023-02-27T05:46:52.836Z,1.80
2023-02-27T05:49:26.943Z,1.65
2023-02-27T05:51:57.453Z,1.67
2023-02-27T05:54:36.463Z,1.86
2023-02-27T05:57:10.356Z,1.82
2023-02-27T05:59:46.894Z,1.94
2023-02-27T06:02:13.715Z,1.84
2023-02-27T06:04:41.531Z,1.88
2023-02-27T06:07:08.654Z,1.86
2023-02-27T06:09:36.084Z,1.76
2023-02-27T06:12:02.711Z,1.77
2023-02-27T06:14:29.313Z,1.82
2023-02-27T06:16:55.950Z,1.81
2023-02-27T06:19:22.547Z,1.88
2023-02-27T06:21:49.880Z,1.92
2023-02-27T06:24:16.467Z,2.01
2023-02-27T06:26:43.057Z,1.78
2023-02-27T06:29:09.688Z,1.76
2023-02-27T06:31:36.261Z,1.67
2023-02-27T06:34:02.932Z,1.69
2023-02-27T06:36:30.138Z,1.69
2023-02-27T06:38:58.061Z,1.65
2023-02-27T06:41:24.690Z,1.73
2023-02-27T06:43:51.356Z,1.95
2023-02-27T06:46:18.006Z,1.70
2023-02-27T06:48:45.522Z,1.89
2023-02-27T06:51:12.176Z,1.82
2023-02-27T06:53:38.813Z,1.81
2023-02-27T06:56:05.905Z,1.74
2023-02-27T06:58:33.109Z,1.77
2023-02-27T07:01:00.907Z,1.90
2023-02-27T07:03:27.641Z,1.81
2023-02-27T07:05:54.261Z,1.90
2023-02-27T07:08:20.906Z,1.82
2023-02-27T07:10:48.978Z,1.79
2023-02-27T07:13:19.306Z,1.72
2023-02-27T07:15:46.579Z,1.89
2023-02-27T07:18:13.338Z,1.93
2023-02-27T07:20:40.297Z,2.16
2023-02-27T07:23:07.229Z,3.21
2023-02-27T07:25:33.799Z,4.22
2023-02-27T07:28:00.394Z,5.02
2023-02-27T07:30:27.070Z,5.59
2023-02-27T07:32:53.658Z,3.98
2023-02-27T07:35:20.297Z,3.69
2023-02-27T07:37:47.565Z,3.51
2023-02-27T07:40:14.848Z,3.28
2023-02-27T07:42:41.520Z,3.27
2023-02-27T07:45:10.199Z,3.27
2023-02-27T07:47:36.822Z,3.48
2023-02-27T07:50:04.789Z,2.91
2023-02-27T07:52:32.359Z,3.22
2023-02-27T07:54:58.972Z,3.66
2023-02-27T07:57:25.540Z,3.61
2023-02-27T07:59:52.100Z,3.49
2023-02-27T08:02:19.045Z,3.59
2023-02-27T08:04:45.739Z,3.84
2023-02-27T08:07:12.397Z,3.93
2023-02-27T08:09:39.048Z,3.79
2023-02-27T08:12:05.725Z,3.86
2023-02-27T08:14:32.450Z,3.83
2023-02-27T08:17:00.399Z,3.71
2023-02-27T08:19:27.143Z,3.62
2023-02-27T08:21:53.707Z,3.67
2023-02-27T08:24:20.336Z,4.35
2023-02-27T08:26:47.006Z,3.90
2023-02-27T08:29:15.534Z,4.22
2023-02-27T08:31:43.640Z,3.85
2023-02-27T08:34:11.104Z,3.91
2023-02-27T08:36:38.076Z,3.92
2023-02-27T08:39:05.969Z,4.01
2023-02-27T08:41:32.608Z,3.96
2023-02-27T08:43:59.299Z,3.93
2023-02-27T08:46:26.645Z,4.68
2023-02-27T08:48:53.438Z,3.61
2023-02-27T08:51:20.049Z,3.54
2023-02-27T08:53:46.696Z,3.05
2023-02-27T08:56:13.347Z,3.39
2023-02-27T08:58:39.971Z,3.33
2023-02-27T09:01:06.604Z,3.49
2023-02-27T09:03:33.204Z,3.64
2023-02-27T09:05:59.825Z,3.37
2023-02-27T09:08:26.523Z,3.25
2023-02-27T09:10:56.341Z,3.08
2023-02-27T09:13:23.054Z,3.24
2023-02-27T09:15:49.709Z,3.07
2023-02-27T09:18:16.331Z,3.00
2023-02-27T09:20:42.939Z,2.75
2023-02-27T09:23:09.576Z,2.96
2023-02-27T09:25:36.282Z,2.70
2023-02-27T09:28:02.923Z,2.82
2023-02-27T09:30:29.598Z,2.71
2023-02-27T09:32:56.214Z,2.58
2023-02-27T09:35:22.860Z,3.02
2023-02-27T09:37:49.619Z,2.75
2023-02-27T09:40:29.423Z,2.60
2023-02-27T09:43:20.673Z,2.75
2023-02-27T09:45:53.196Z,2.20
2023-02-27T09:48:46.971Z,2.22
2023-02-27T09:51:16.573Z,2.31
2023-02-27T09:53:48.420Z,2.62
2023-02-27T09:56:39.859Z,2.79
2023-02-27T09:59:50.637Z,2.59
2023-02-27T10:02:46.638Z,1.90
2023-02-27T10:05:23.713Z,2.08
2023-02-27T10:07:56.194Z,2.00
2023-02-27T10:10:25.777Z,2.08
2023-02-27T10:13:04.389Z,1.78
2023-02-27T10:15:36.950Z,1.74
2023-02-27T10:18:26.788Z,1.96
2023-02-27T10:20:59.746Z,1.70
2023-02-27T10:23:37.380Z,1.78
2023-02-27T10:26:05.745Z,1.73
2023-02-27T10:28:33.272Z,1.83
2023-02-27T10:31:02.346Z,1.70
2023-02-27T10:33:41.786Z,1.65
2023-02-27T10:36:17.906Z,1.75
2023-02-27T10:38:58.747Z,1.53
2023-02-27T10:41:28.118Z,1.74
2023-02-27T10:43:59.433Z,1.49
2023-02-27T10:46:32.613Z,1.47
2023-02-27T10:49:01.752Z,1.74
2023-02-27T10:51:31.125Z,1.37
2023-02-27T10:54:18.837Z,1.27
2023-02-27T10:56:49.285Z,1.40
2023-02-27T10:59:23.795Z,1.34
2023-02-27T11:01:55.437Z,1.42
2023-02-27T11:04:38.616Z,1.21
2023-02-27T11:07:09.485Z,1.45
2023-02-27T11:09:37.367Z,1.33
2023-02-27T11:12:24.286Z,1.36
2023-02-27T11:14:57.035Z,1.35
2023-02-27T11:17:32.802Z,1.41
2023-02-27T11:20:01.786Z,1.11
2023-02-27T11:22:31.629Z,1.28
2023-02-27T11:25:30.587Z,1.21
2023-02-27T11:28:25.282Z,1.36
2023-02-27T11:31:05.939Z,1.22
2023-02-27T11:33:40.338Z,1.25
2023-02-27T11:48:09.379Z,1.26
2023-02-27T11:51:06.421Z,1.29
2023-02-27T11:54:03.712Z,1.06
2023-02-27T11:56:36.779Z,1.09
2023-02-27T11:59:34.369Z,0.92
2023-02-27T12:02:22.885Z,1.03
2023-02-27T12:04:55.466Z,1.15
2023-02-27T12:07:40.787Z,1.15
2023-02-27T12:10:15.922Z,1.05
2023-02-27T12:12:50.447Z,0.99
2023-02-27T12:15:44.316Z,1.05
2023-02-27T12:18:10.837Z,0.95
2023-02-27T12:21:18.650Z,0.98
2023-02-27T12:23:53.426Z,1.12
2023-02-27T12:26:30.558Z,0.95
2023-02-27T12:29:09.236Z,1.10
2023-02-27T12:31:39.750Z,1.06
2023-02-27T12:34:18.743Z,0.92
2023-02-27T12:36:45.892Z,1.11
2023-02-27T12:39:20.445Z,1.17
2023-02-27T12:42:08.202Z,1.09
2023-02-27T12:44:51.577Z,1.19
2023-02-27T12:47:26.919Z,1.56
2023-02-27T12:50:12.940Z,1.19
2023-02-27T12:52:51.451Z,1.26
2023-02-27T12:55:27.083Z,1.34
2023-02-27T12:58:18.266Z,1.32
2023-02-27T13:00:50.893Z,1.20
2023-02-27T13:03:48.809Z,1.38
2023-02-27T13:06:32.779Z,1.19
2023-02-27T13:09:25.794Z,1.33
2023-02-27T13:12:26.320Z,1.39
2023-02-27T13:15:01.496Z,1.42
2023-02-27T13:18:01.798Z,1.51
2023-02-27T13:20:39.237Z,1.36
2023-02-27T13:23:18.220Z,1.59
2023-02-27T13:25:50.880Z,1.40
2023-02-27T13:28:27.924Z,1.70
2023-02-27T13:31:09.036Z,1.56
2023-02-27T13:33:48.532Z,1.62
2023-02-27T13:36:30.078Z,1.60
2023-02-27T13:38:57.491Z,1.78
2023-02-27T13:41:24.024Z,1.46
2023-02-27T13:43:52.760Z,1.57
2023-02-27T13:46:33.470Z,1.58
2023-02-27T13:49:09.150Z,1.51
2023-02-27T13:51:35.807Z,1.65
2023-02-27T13:54:08.072Z,1.80
2023-02-27T13:56:35.480Z,1.60
2023-02-27T13:59:27.356Z,2.00
2023-02-27T14:02:20.079Z,1.87
2023-02-27T14:04:48.157Z,1.56
2023-02-27T14:07:21.301Z,1.57
2023-02-27T14:09:52.798Z,1.74
2023-02-27T14:12:44.300Z,1.66
2023-02-27T14:15:17.446Z,1.73
2023-02-27T14:17:47.716Z,1.48
2023-02-27T14:20:17.338Z,1.52
2023-02-27T14:23:15.750Z,1.62
2023-02-27T14:25:49.889Z,1.73
2023-02-27T14:28:37.872Z,1.64
2023-02-27T14:31:09.601Z,1.78
2023-02-27T14:33:50.437Z,1.77
2023-02-27T14:36:29.494Z,2.02
2023-02-27T14:39:01.647Z,3.22
2023-02-27T14:41:30.958Z,3.82
2023-02-27T14:43:58.916Z,4.29
2023-02-27T14:46:28.602Z,4.50
2023-02-27T14:48:57.264Z,4.40
2023-02-27T14:51:25.196Z,3.78
2023-02-27T14:54:19.992Z,4.19
2023-02-27T14:56:57.985Z,3.96
2023-02-27T14:59:34.034Z,3.33
2023-02-27T15:02:04.236Z,2.90
2023-02-27T15:04:33.118Z,2.41
2023-02-27T15:07:00.874Z,2.40
2023-02-27T15:09:34.808Z,8.56
2023-02-27T15:12:04.711Z,7.10
2023-02-27T15:14:40.059Z,17.86
2023-02-27T15:17:18.844Z,10.48
2023-02-27T15:19:49.318Z,2.87
2023-02-27T15:22:38.564Z,2.77
2023-02-27T15:25:07.888Z,2.42
2023-02-27T15:27:37.592Z,3.28
2023-02-27T15:30:05.274Z,4.03
2023-02-27T15:32:36.597Z,4.23
2023-02-27T15:35:36.663Z,4.03
2023-02-27T15:38:03.701Z,3.47
2023-02-27T15:40:33.558Z,3.39
2023-02-27T15:43:01.510Z,3.12
2023-02-27T15:45:33.696Z,3.33
2023-02-27T15:48:00.925Z,2.81
2023-02-27T15:50:28.630Z,2.76
2023-02-27T15:53:18.482Z,2.78
2023-02-27T15:55:53.090Z,3.26
2023-02-27T15:58:33.562Z,2.80
2023-02-27T16:01:14.416Z,2.71
2023-02-27T16:03:48.382Z,2.81
2023-02-27T16:06:37.221Z,2.74
2023-02-27T16:09:27.242Z,2.73
2023-02-27T16:12:31.396Z,2.63
2023-02-27T16:15:18.031Z,2.72
2023-02-27T16:17:53.625Z,2.45
2023-02-27T16:20:32.281Z,2.56
2023-02-27T16:23:06.603Z,2.57
2023-02-27T16:25:33.630Z,2.23
2023-02-27T16:28:00.405Z,1.96
2023-02-27T16:30:27.638Z,2.04
2023-02-27T16:33:01.256Z,2.12
2023-02-27T16:35:29.060Z,2.00
2023-02-27T16:38:01.636Z,2.17
2023-02-27T16:40:29.088Z,2.32
2023-02-27T16:42:56.345Z,2.44
2023-02-27T16:45:28.169Z,2.13
2023-02-27T16:47:57.820Z,2.23
2023-02-27T16:50:42.905Z,2.03
2023-02-27T16:53:09.600Z,2.18
2023-02-27T16:55:40.817Z,2.26
2023-02-27T16:58:07.471Z,2.13
2023-02-27T17:00:37.119Z,2.10
2023-02-27T17:03:04.118Z,2.04
2023-02-27T17:05:30.773Z,2.16
2023-02-27T17:07:57.581Z,2.33
2023-02-27T17:10:25.423Z,2.39
2023-02-27T17:12:52.580Z,2.08
2023-02-27T17:15:19.590Z,2.35
2023-02-27T17:17:46.177Z,2.58
2023-02-27T17:20:14.611Z,2.86
2023-02-27T17:22:43.712Z,3.21
2023-02-27T17:25:11.440Z,3.18
2023-02-27T17:27:38.508Z,3.66
2023-02-27T17:30:06.704Z,3.77
2023-02-27T17:32:34.547Z,3.72
2023-02-27T17:35:01.654Z,3.57
2023-02-27T17:37:28.308Z,3.72
2023-02-27T17:39:55.379Z,3.84
2023-02-27T17:42:25.565Z,4.19
2023-02-27T17:44:52.244Z,4.21
2023-02-27T17:47:18.992Z,4.00
2023-02-27T17:49:45.849Z,4.53
2023-02-27T17:52:12.545Z,4.24
2023-02-27T17:54:39.172Z,4.69
2023-02-27T17:57:06.869Z,4.51
2023-02-27T17:59:33.651Z,5.00
2023-02-27T18:02:00.275Z,5.34
2023-02-27T18:04:27.134Z,6.31
2023-02-27T18:06:53.788Z,6.55
2023-02-27T18:09:20.439Z,6.12
2023-02-27T18:11:47.167Z,6.50
2023-02-27T18:14:13.917Z,7.02
2023-02-27T18:16:42.464Z,7.59
2023-02-27T18:19:09.086Z,7.58
2023-02-27T18:21:35.990Z,6.80
2023-02-27T18:24:02.796Z,6.36
2023-02-27T18:26:33.123Z,6.11
2023-02-27T18:29:09.746Z,5.89
2023-02-27T18:31:39.692Z,5.90
2023-02-27T18:34:07.731Z,6.34
2023-02-27T18:36:35.144Z,6.97
2023-02-27T18:39:03.201Z,7.72
2023-02-27T18:41:29.807Z,7.97
2023-02-27T18:43:58.286Z,7.74
2023-02-27T18:46:25.433Z,7.04
2023-02-27T18:48:52.286Z,6.11
2023-02-27T18:51:19.197Z,6.59
2023-02-27T18:53:49.354Z,6.64
2023-02-27T18:56:22.985Z,7.09
2023-02-27T18:58:50.358Z,7.25
2023-02-27T19:01:28.557Z,7.36
2023-02-27T19:04:01.586Z,7.35
2023-02-27T19:06:28.579Z,7.13
2023-02-27T19:08:55.701Z,7.34
2023-02-27T19:11:29.592Z,6.93
2023-02-27T19:13:57.296Z,6.83
2023-02-27T19:16:24.008Z,6.41
2023-02-27T19:18:50.648Z,6.57
2023-02-27T19:21:17.722Z,8.13
2023-02-27T19:23:44.343Z,8.42
2023-02-27T19:26:11.285Z,8.26
2023-02-27T19:28:37.960Z,7.94
2023-02-27T19:31:13.314Z,8.28
2023-02-27T19:33:40.714Z,6.71
2023-02-27T19:36:09.330Z,5.94
2023-02-27T19:38:36.983Z,5.77
2023-02-27T19:41:07.158Z,6.02
2023-02-27T19:43:38.649Z,6.63
2023-02-27T19:46:11.763Z,6.13
2023-02-27T19:48:38.956Z,6.44
2023-02-27T19:51:08.065Z,5.96
2023-02-27T19:53:36.653Z,5.55
2023-02-27T19:56:10.818Z,5.44
2023-02-27T19:58:39.267Z,5.37
2023-02-27T20:01:07.104Z,5.55
2023-02-27T20:03:35.436Z,5.60
2023-02-27T20:06:06.291Z,5.81
2023-02-27T20:08:34.108Z,5.24
2023-02-27T20:11:03.199Z,5.42
2023-02-27T20:13:30.649Z,5.53
2023-02-27T20:16:07.247Z,5.60
2023-02-27T20:18:35.753Z,5.82
2023-02-27T20:21:04.671Z,5.37
2023-02-27T20:23:33.660Z,5.47
2023-02-27T20:26:01.587Z,5.58
2023-02-27T20:28:28.467Z,5.81
2023-02-27T20:30:55.468Z,5.23
2023-02-27T20:33:22.092Z,5.33
2023-02-27T20:35:48.853Z,5.66
2023-02-27T20:38:19.783Z,5.32
2023-02-27T20:40:46.414Z,5.44
2023-02-27T20:43:13.018Z,5.63
2023-02-27T20:45:39.902Z,5.56
2023-02-27T20:48:07.123Z,5.54
2023-02-27T20:50:34.775Z,6.01
2023-02-27T20:53:04.471Z,5.88
2023-02-27T20:55:31.399Z,6.50
2023-02-27T20:57:58.050Z,6.36
2023-02-27T21:00:27.989Z,6.49
2023-02-27T21:02:54.749Z,6.92
2023-02-27T21:05:21.417Z,6.77
2023-02-27T21:07:48.101Z,6.92
2023-02-27T21:10:14.698Z,7.11
2023-02-27T21:12:41.380Z,7.36
2023-02-27T21:15:08.316Z,7.07
2023-02-27T21:17:34.967Z,7.05
2023-02-27T21:20:06.769Z,6.83
2023-02-27T21:22:34.468Z,6.59
2023-02-27T21:25:01.149Z,6.76
2023-02-27T21:27:27.842Z,6.77
2023-02-27T21:29:54.504Z,6.96
2023-02-27T21:32:21.222Z,7.01
2023-02-27T21:34:47.890Z,6.71
2023-02-27T21:37:14.570Z,6.48
2023-02-27T21:39:41.178Z,6.58
2023-02-27T21:42:07.814Z,6.26
2023-02-27T21:44:34.469Z,6.46
2023-02-27T21:47:09.745Z,6.09
2023-02-27T21:49:36.967Z,6.39
2023-02-27T21:52:03.765Z,6.32
2023-02-27T21:54:30.593Z,6.42
2023-02-27T21:57:01.652Z,6.30
2023-02-27T21:59:28.949Z,6.32
2023-02-27T22:01:56.454Z,6.87
2023-02-27T22:04:24.292Z,7.20
2023-02-27T22:06:53.014Z,7.28
2023-02-27T22:09:21.184Z,8.45
2023-02-27T22:11:49.179Z,8.68
2023-02-27T22:14:16.041Z,8.98
2023-02-27T22:16:42.697Z,8.62
2023-02-27T22:19:13.120Z,8.48
2023-02-27T22:21:40.504Z,8.21
2023-02-27T22:24:08.206Z,7.93
2023-02-27T22:26:35.914Z,7.55
2023-02-27T22:29:03.839Z,7.60
2023-02-27T22:31:33.885Z,7.34
2023-02-27T22:34:06.600Z,7.53
2023-02-27T22:36:35.233Z,7.43
2023-02-27T22:39:01.990Z,7.35
2023-02-27T22:41:32.268Z,7.72
2023-02-27T22:44:01.824Z,7.54
2023-02-27T22:46:32.395Z,7.36
2023-02-27T22:49:02.528Z,7.33
2023-02-27T22:51:30.830Z,7.15
2023-02-27T22:54:01.628Z,6.77
2023-02-27T22:56:28.647Z,7.60
2023-02-27T22:58:55.605Z,7.06
2023-02-27T23:01:25.370Z,7.41
2023-02-27T23:03:53.710Z,7.18
2023-02-27T23:06:25.103Z,6.90
2023-02-27T23:08:52.413Z,7.02
2023-02-27T23:11:20.240Z,7.35
2023-02-27T23:13:47.478Z,6.73
2023-02-27T23:16:14.130Z,6.91
2023-02-27T23:18:46.095Z,6.39
2023-02-27T23:21:18.332Z,6.54
2023-02-27T23:23:45.957Z,6.18
2023-02-27T23:26:13.210Z,6.53
2023-02-27T23:28:40.014Z,6.12
2023-02-27T23:31:07.801Z,6.52
2023-02-27T23:33:34.753Z,6.17
2023-02-27T23:36:02.253Z,6.41
2023-02-27T23:38:29.488Z,6.67
2023-02-27T23:40:56.728Z,6.37
2023-02-27T23:43:42.293Z,6.33
2023-02-27T23:46:11.613Z,6.08
2023-02-27T23:48:38.758Z,6.21
2023-02-27T23:51:07.402Z,6.26
2023-02-27T23:53:35.991Z,6.75
2023-02-27T23:56:15.431Z,6.46
2023-02-27T23:58:42.133Z,6.88
